Time;durP1;ratioP1;P1;durP2;ratioP2;P2;SDS_P1;SDS_P2;PMS_P1;PMS_P2;Temp;Humidity;BMP_temperature;BMP_pressure;BME280_temperature;BME280_humidity;BME280_pressure;Samples;Min_cycle;Max_cycle;Signal;HPM_P1;HPM_P2
2023/08/30 00:02:03;;;;;;;0.00;0.00;;;11.90;99.90;;;;;;8400914;28;20040;-83
2023/08/30 00:06:05;;;;;;;0.17;0.17;;;12.00;99.90;;;;;;8399447;28;20017;-84
2023/08/30 00:10:07;;;;;;;0.00;0.00;;;11.90;99.90;;;;;;8377984;28;20181;-83
2023/08/30 00:14:07;;;;;;;0.00;0.00;;;11.90;99.90;;;;;;8399011;28;20032;-83
2023/08/30 00:18:08;;;;;;;0.00;0.00;;;11.90;99.90;;;;;;8380624;28;20028;-82
2023/08/30 00:22:09;;;;;;;0.00;0.00;;;11.90;99.90;;;;;;8380884;28;20043;-83
2023/08/30 00:26:09;;;;;;;0.00;0.00;;;11.90;99.90;;;;;;8380798;28;20112;-82
2023/08/30 00:30:11;;;;;;;0.10;0.10;;;11.90;99.90;;;;;;8380936;28;20040;-83
2023/08/30 00:34:12;;;;;;;0.00;0.00;;;11.90;99.90;;;;;;8380733;28;20107;-82
2023/08/30 00:38:12;;;;;;;0.00;0.00;;;11.80;99.90;;;;;;8398418;28;20029;-83
2023/08/30 00:42:13;;;;;;;0.00;0.00;;;11.80;99.90;;;;;;8380090;28;20019;-82
2023/08/30 00:46:15;;;;;;;0.00;0.00;;;11.90;99.90;;;;;;8379748;28;20031;-81
2023/08/30 00:50:16;;;;;;;2.38;0.90;;;11.90;99.90;;;;;;8379263;28;20655;-83
2023/08/30 00:54:17;;;;;;;0.00;0.00;;;11.90;99.90;;;;;;8398920;28;20035;-82
2023/08/30 00:58:17;;;;;;;0.00;0.00;;;11.90;99.90;;;;;;8400459;28;20024;-83
2023/08/30 01:02:18;;;;;;;0.00;0.00;;;11.90;99.90;;;;;;8381069;28;20021;-83
2023/08/30 01:06:18;;;;;;;0.00;0.00;;;11.90;99.90;;;;;;8384984;28;20023;-82
2023/08/30 01:10:28;;;;;;;0.00;0.00;;;11.90;99.90;;;;;;8388705;28;20488;-83
2023/08/30 01:14:47;;;;;;;0.00;0.00;;;11.90;99.90;;;;;;8379497;28;20041;-83
2023/08/30 01:18:49;;;;;;;0.00;0.00;;;12.10;99.90;;;;;;8374764;28;20033;-83
2023/08/30 01:23:02;;;;;;;0.17;0.17;;;12.00;99.90;;;;;;8380591;28;20035;-83
2023/08/30 01:27:09;;;;;;;0.40;0.25;;;11.70;99.90;;;;;;8382415;28;20086;-83
2023/08/30 01:31:13;;;;;;;0.10;0.10;;;11.60;99.90;;;;;;8381058;28;20484;-83
2023/08/30 01:35:17;;;;;;;0.98;0.50;;;11.50;99.90;;;;;;8380650;28;20021;-83
2023/08/30 01:39:18;;;;;;;0.00;0.00;;;11.50;99.90;;;;;;8399223;28;20017;-83
2023/08/30 01:43:21;;;;;;;3.40;1.25;;;11.40;99.90;;;;;;8378889;28;20027;-83
2023/08/30 01:47:24;;;;;;;0.00;0.00;;;11.50;99.90;;;;;;8397843;28;20021;-82
2023/08/30 01:51:25;;;;;;;0.00;0.00;;;11.60;99.90;;;;;;8379851;28;20024;-84
2023/08/30 01:55:28;;;;;;;0.00;0.00;;;11.70;99.90;;;;;;8385241;28;20038;-83
2023/08/30 01:59:29;;;;;;;0.00;0.00;;;11.70;99.90;;;;;;8398542;28;20042;-83
2023/08/30 02:03:30;;;;;;;0.10;0.10;;;11.70;99.90;;;;;;8378015;28;20369;-83
2023/08/30 02:07:40;;;;;;;0.00;0.00;;;11.70;99.90;;;;;;8377623;28;20016;-84
2023/08/30 02:11:43;;;;;;;0.00;0.00;;;11.60;99.90;;;;;;8370767;28;20036;-83
2023/08/30 02:15:46;;;;;;;0.00;0.00;;;11.70;99.90;;;;;;8377647;28;20123;-83
2023/08/30 02:19:47;;;;;;;0.00;0.00;;;11.80;99.90;;;;;;8377523;28;20374;-83
2023/08/30 02:23:51;;;;;;;0.08;0.08;;;11.70;99.90;;;;;;8395576;28;20477;-84
2023/08/30 02:27:52;;;;;;;0.00;0.00;;;11.50;99.90;;;;;;8378025;28;20123;-83
2023/08/30 02:31:52;;;;;;;3.20;1.17;;;11.40;99.90;;;;;;8398093;28;20105;-84
2023/08/30 02:35:53;;;;;;;0.10;0.10;;;11.40;99.90;;;;;;8383871;28;20024;-84
2023/08/30 02:39:54;;;;;;;0.35;0.35;;;11.30;99.90;;;;;;8383515;28;20024;-84
2023/08/30 02:43:54;;;;;;;0.00;0.00;;;11.30;99.90;;;;;;8400283;28;20056;-84
2023/08/30 02:47:59;;;;;;;0.70;0.70;;;11.30;99.90;;;;;;8406704;28;20048;-84
2023/08/30 02:51:59;;;;;;;0.00;0.00;;;11.20;99.90;;;;;;8383504;28;20028;-84
2023/08/30 02:56:00;;;;;;;0.00;0.00;;;11.20;99.90;;;;;;8382857;28;20111;-84
2023/08/30 03:00:01;;;;;;;0.20;0.20;;;11.30;99.90;;;;;;8381310;28;20016;-84
2023/08/30 03:04:01;;;;;;;0.00;0.00;;;11.30;99.90;;;;;;8382916;28;20080;-83
2023/08/30 03:08:02;;;;;;;0.00;0.00;;;11.30;99.90;;;;;;8377993;28;20052;-84
2023/08/30 03:12:02;;;;;;;0.75;0.75;;;11.20;99.90;;;;;;8378233;28;20485;-83
2023/08/30 03:16:14;;;;;;;0.00;0.00;;;10.90;99.90;;;;;;8376535;28;20074;-84
2023/08/30 03:20:14;;;;;;;0.40;0.40;;;10.80;99.90;;;;;;8395719;28;20069;-84
2023/08/30 03:24:16;;;;;;;0.30;0.30;;;10.80;99.90;;;;;;8404135;28;20396;-84
2023/08/30 03:28:16;;;;;;;0.00;0.00;;;10.60;99.90;;;;;;8384704;28;20115;-83
2023/08/30 03:32:18;;;;;;;0.00;0.00;;;10.60;99.90;;;;;;8383919;28;20021;-83
2023/08/30 03:36:19;;;;;;;0.00;0.00;;;10.60;99.90;;;;;;8388020;28;20024;-83
2023/08/30 03:40:19;;;;;;;0.00;0.00;;;10.50;99.90;;;;;;8405392;28;20427;-83
2023/08/30 03:44:20;;;;;;;0.00;0.00;;;10.60;99.90;;;;;;8419120;28;20020;-83
2023/08/30 03:48:20;;;;;;;0.35;0.35;;;10.60;99.90;;;;;;8386245;28;20382;-84
2023/08/30 03:52:21;;;;;;;0.00;0.00;;;10.60;99.90;;;;;;8385607;28;20031;-83
2023/08/30 04:00:24;;;;;;;0.00;0.00;;;10.80;99.90;;;;;;8364643;28;20053;-78
2023/08/30 04:04:25;;;;;;;0.00;0.00;;;10.90;99.90;;;;;;8346337;28;20493;-78
2023/08/30 04:08:25;;;;;;;0.10;0.10;;;11.00;99.90;;;;;;8341609;28;20021;-78
2023/08/30 04:12:26;;;;;;;0.00;0.00;;;11.10;99.90;;;;;;8342753;28;20470;-78
2023/08/30 04:16:26;;;;;;;0.00;0.00;;;11.10;99.90;;;;;;8332555;28;20569;-78
2023/08/30 04:20:27;;;;;;;0.00;0.00;;;11.00;99.90;;;;;;8329521;28;20104;-78
2023/08/30 04:24:27;;;;;;;0.00;0.00;;;10.90;99.90;;;;;;8353246;28;20009;-78
2023/08/30 04:28:28;;;;;;;0.00;0.00;;;11.00;99.90;;;;;;8346104;28;20021;-78
2023/08/30 04:32:28;;;;;;;0.00;0.00;;;11.00;99.90;;;;;;8360757;28;20029;-78
2023/08/30 04:36:29;;;;;;;0.00;0.00;;;11.10;99.90;;;;;;8344815;28;20474;-78
2023/08/30 04:40:30;;;;;;;0.00;0.00;;;11.10;99.90;;;;;;8350323;28;20094;-77
2023/08/30 04:44:32;;;;;;;0.35;0.35;;;11.10;99.90;;;;;;8323923;28;20017;-78
2023/08/30 04:48:32;;;;;;;0.00;0.00;;;11.00;99.90;;;;;;8362584;28;20021;-78
2023/08/30 04:52:33;;;;;;;0.00;0.00;;;11.10;99.90;;;;;;8354195;28;20032;-79
2023/08/30 04:56:34;;;;;;;0.10;0.10;;;11.10;99.90;;;;;;8343856;28;20028;-77
2023/08/30 05:00:36;;;;;;;0.25;0.25;;;11.10;99.90;;;;;;8348389;28;20541;-78
2023/08/30 05:04:39;;;;;;;0.00;0.00;;;11.20;99.90;;;;;;8345224;28;20020;-78
2023/08/30 05:08:39;;;;;;;0.10;0.10;;;11.20;99.90;;;;;;8333041;28;20076;-78
2023/08/30 05:12:42;;;;;;;0.40;0.40;;;11.30;99.90;;;;;;8329845;28;20112;-78
2023/08/30 05:16:43;;;;;;;0.00;0.00;;;11.40;99.90;;;;;;8346844;28;20488;-78
2023/08/30 05:20:43;;;;;;;0.00;0.00;;;11.50;99.90;;;;;;8371884;28;20099;-77
2023/08/30 05:24:44;;;;;;;0.08;0.08;;;11.60;99.90;;;;;;8339084;28;20029;-77
2023/08/30 05:28:44;;;;;;;0.00;0.00;;;11.80;99.90;;;;;;8322251;28;20072;-77
2023/08/30 05:32:45;;;;;;;0.00;0.00;;;12.00;99.90;;;;;;8363082;28;20105;-78
2023/08/30 05:36:45;;;;;;;0.10;0.10;;;12.10;99.90;;;;;;8339821;28;20028;-78
2023/08/30 05:40:46;;;;;;;0.10;0.10;;;12.10;99.90;;;;;;8349759;28;20024;-76
2023/08/30 05:44:46;;;;;;;0.05;0.05;;;12.40;99.90;;;;;;8358007;28;20025;-78
2023/08/30 05:48:47;;;;;;;0.00;0.00;;;12.50;99.90;;;;;;8323996;28;20566;-77
2023/08/30 05:52:47;;;;;;;0.00;0.00;;;12.70;99.90;;;;;;8340761;28;20028;-78
2023/08/30 05:56:48;;;;;;;0.10;0.10;;;13.00;99.90;;;;;;8352227;28;20508;-78
2023/08/30 06:00:48;;;;;;;0.10;0.10;;;13.10;99.90;;;;;;8342940;28;20056;-78
2023/08/30 06:04:49;;;;;;;0.03;0.03;;;13.10;99.90;;;;;;8331069;28;20032;-78
2023/08/30 06:08:50;;;;;;;0.00;0.00;;;13.60;99.90;;;;;;8349967;28;20024;-78
2023/08/30 06:12:51;;;;;;;0.98;0.98;;;13.50;99.90;;;;;;8349873;28;20062;-78
2023/08/30 06:16:51;;;;;;;0.00;0.00;;;13.80;99.90;;;;;;8360413;28;20516;-78
2023/08/30 06:20:52;;;;;;;0.10;0.10;;;14.00;99.90;;;;;;8350593;28;20029;-78
2023/08/30 06:24:52;;;;;;;0.00;0.00;;;13.80;99.90;;;;;;8337215;28;20060;-78
2023/08/30 06:28:53;;;;;;;0.00;0.00;;;13.90;99.90;;;;;;8354580;28;20037;-79
2023/08/30 06:32:53;;;;;;;0.00;0.00;;;13.70;99.90;;;;;;8360747;28;20059;-79
2023/08/30 06:36:54;;;;;;;0.35;0.10;;;13.60;99.90;;;;;;8336865;28;20044;-78
2023/08/30 06:40:58;;;;;;;1.65;1.55;;;13.60;99.90;;;;;;8356154;28;20061;-78
2023/08/30 06:44:58;;;;;;;0.17;0.17;;;13.60;99.90;;;;;;8342859;28;20042;-78
2023/08/30 06:48:59;;;;;;;0.03;0.03;;;13.70;99.90;;;;;;8380663;28;20103;-78
2023/08/30 06:52:59;;;;;;;0.00;0.00;;;13.70;99.90;;;;;;8369140;28;21238;-78
2023/08/30 06:57:00;;;;;;;0.00;0.00;;;13.80;99.90;;;;;;8375159;28;20951;-78
2023/08/30 07:01:03;;;;;;;0.00;0.00;;;13.70;99.90;;;;;;8347386;28;20024;-77
2023/08/30 07:05:04;;;;;;;0.28;0.28;;;13.80;99.90;;;;;;8333493;28;20027;-77
2023/08/30 07:09:06;;;;;;;0.30;0.30;;;13.70;99.90;;;;;;8348355;28;20644;-78
2023/08/30 07:13:10;;;;;;;0.10;0.10;;;13.60;99.90;;;;;;8334203;28;20401;-78
2023/08/30 07:17:10;;;;;;;0.00;0.00;;;13.70;99.90;;;;;;8374001;28;20493;-77
2023/08/30 07:21:11;;;;;;;0.00;0.00;;;13.90;99.90;;;;;;8355731;28;20024;-78
2023/08/30 07:25:13;;;;;;;0.10;0.10;;;13.80;99.90;;;;;;8350414;28;20116;-77
2023/08/30 07:29:14;;;;;;;0.00;0.00;;;13.90;99.90;;;;;;8333937;28;20116;-78
2023/08/30 07:33:14;;;;;;;0.00;0.00;;;14.00;99.90;;;;;;8377924;28;20036;-77
2023/08/30 07:37:22;;;;;;;0.38;0.30;;;14.00;99.90;;;;;;8344049;28;20052;-78
2023/08/30 07:41:22;;;;;;;0.00;0.00;;;13.90;99.90;;;;;;8354599;28;20048;-77
2023/08/30 07:45:23;;;;;;;0.00;0.00;;;13.80;99.90;;;;;;8357769;28;20020;-77
2023/08/30 07:49:23;;;;;;;0.10;0.10;;;13.80;99.90;;;;;;8342712;28;20031;-77
2023/08/30 07:53:24;;;;;;;0.10;0.10;;;14.10;99.90;;;;;;8367580;28;20039;-78
2023/08/30 07:57:24;;;;;;;0.10;0.10;;;14.20;99.90;;;;;;8346383;28;20048;-77
2023/08/30 08:01:25;;;;;;;0.00;0.00;;;14.40;99.90;;;;;;8335605;28;20449;-78
2023/08/30 08:05:25;;;;;;;0.00;0.00;;;14.50;99.90;;;;;;8338873;28;20024;-77
2023/08/30 08:09:26;;;;;;;0.00;0.00;;;14.80;99.90;;;;;;8334306;28;20083;-78
2023/08/30 08:13:26;;;;;;;0.00;0.00;;;14.90;99.90;;;;;;8352288;28;20033;-78
2023/08/30 08:17:27;;;;;;;0.10;0.10;;;15.00;99.90;;;;;;8334535;28;20026;-77
2023/08/30 08:21:27;;;;;;;0.20;0.20;;;15.20;99.90;;;;;;8333357;28;20022;-77
2023/08/30 08:25:28;;;;;;;2.50;1.67;;;15.30;99.90;;;;;;8358604;28;20021;-77
2023/08/30 08:29:29;;;;;;;0.00;0.00;;;15.60;99.90;;;;;;8339816;28;20051;-78
2023/08/30 08:33:29;;;;;;;0.00;0.00;;;15.70;99.90;;;;;;8345304;28;20013;-78
2023/08/30 08:37:32;;;;;;;0.00;0.00;;;15.60;99.90;;;;;;8357296;28;20036;-77
2023/08/30 08:41:40;;;;;;;0.00;0.00;;;15.80;99.90;;;;;;8362508;28;20025;-77
2023/08/30 08:45:40;;;;;;;0.10;0.10;;;15.90;99.90;;;;;;8352479;28;20025;-77
2023/08/30 08:49:42;;;;;;;0.10;0.10;;;15.70;99.90;;;;;;8361617;28;20032;-77
2023/08/30 08:53:43;;;;;;;0.47;0.32;;;16.20;99.90;;;;;;8369640;28;20100;-77
2023/08/30 08:57:45;;;;;;;0.32;0.32;;;16.30;99.90;;;;;;8366650;28;20036;-77
2023/08/30 09:01:45;;;;;;;0.00;0.00;;;16.20;99.90;;;;;;8343408;28;20021;-77
2023/08/30 09:05:46;;;;;;;0.00;0.00;;;16.40;99.90;;;;;;8372905;28;20564;-77
2023/08/30 09:09:47;;;;;;;0.10;0.10;;;16.60;99.90;;;;;;8342573;28;20532;-77
2023/08/30 09:13:48;;;;;;;0.10;0.10;;;17.10;99.90;;;;;;8361167;28;20075;-76
2023/08/30 09:17:48;;;;;;;0.17;0.17;;;17.50;99.90;;;;;;8340760;28;20117;-77
2023/08/30 09:21:57;;;;;;;0.00;0.00;;;18.40;99.90;;;;;;8336104;28;20082;-77
2023/08/30 09:25:57;;;;;;;0.00;0.00;;;18.70;99.90;;;;;;8350924;28;20043;-77
2023/08/30 09:29:58;;;;;;;0.00;0.00;;;19.10;99.90;;;;;;8358719;28;20021;-77
2023/08/30 09:34:01;;;;;;;0.13;0.13;;;19.20;99.90;;;;;;8361455;28;20058;-77
2023/08/30 09:38:01;;;;;;;0.10;0.10;;;19.40;99.90;;;;;;8342966;28;20032;-76
2023/08/30 09:42:02;;;;;;;0.50;0.50;;;19.70;99.90;;;;;;8350010;28;20441;-77
2023/08/30 09:46:04;;;;;;;0.73;0.73;;;20.10;99.90;;;;;;8340396;28;20647;-76
2023/08/30 09:50:05;;;;;;;0.00;0.00;;;20.20;99.90;;;;;;8344364;28;20048;-77
2023/08/30 09:54:07;;;;;;;0.10;0.10;;;21.10;99.90;;;;;;8344228;22;20013;-84
2023/08/30 09:58:08;;;;;;;0.10;0.10;;;21.70;99.90;;;;;;8359228;28;20033;-83
2023/08/30 10:02:10;;;;;;;0.00;0.00;;;21.30;99.90;;;;;;8344399;28;20021;-82
2023/08/30 10:06:12;;;;;;;0.10;0.10;;;20.90;99.90;;;;;;8328141;28;20053;-82
2023/08/30 10:10:12;;;;;;;0.20;0.20;;;21.20;99.90;;;;;;8316780;28;20386;-82
2023/08/30 10:14:13;;;;;;;0.00;0.00;;;21.50;99.90;;;;;;8317549;28;20085;-82
2023/08/30 10:18:17;;;;;;;0.17;0.17;;;21.60;99.90;;;;;;8323683;28;20486;-82
2023/08/30 10:22:18;;;;;;;0.10;0.10;;;21.70;99.90;;;;;;8312184;28;20477;-82
2023/08/30 10:26:20;;;;;;;0.10;0.10;;;21.70;99.90;;;;;;8311609;28;20571;-81
2023/08/30 10:30:22;;;;;;;0.10;0.10;;;22.00;99.90;;;;;;8311038;28;20033;-81
2023/08/30 10:34:24;;;;;;;0.03;0.03;;;21.90;99.90;;;;;;8311492;28;20382;-82
2023/08/30 10:38:27;;;;;;;0.00;0.00;;;21.90;99.90;;;;;;8316041;28;20275;-81
2023/08/30 10:42:27;;;;;;;0.10;0.10;;;22.10;99.90;;;;;;8310807;28;20079;-81
2023/08/30 10:46:34;;;;;;;0.13;0.13;;;22.10;99.90;;;;;;8310138;28;20021;-81
2023/08/30 10:50:34;;;;;;;0.00;0.00;;;22.00;99.90;;;;;;8312184;28;20444;-81
2023/08/30 10:54:41;;;;;;;0.00;0.00;;;22.00;99.90;;;;;;8313263;28;20048;-81
2023/08/30 10:58:46;;;;;;;0.17;0.17;;;21.90;99.90;;;;;;8308972;28;20028;-81
2023/08/30 11:02:49;;;;;;;0.10;0.10;;;22.00;99.90;;;;;;8308990;28;20104;-81
2023/08/30 11:06:51;;;;;;;0.08;0.08;;;21.90;99.90;;;;;;8326303;28;20017;-81
2023/08/30 11:11:02;;;;;;;0.00;0.00;;;21.60;99.90;;;;;;8326064;28;20026;-81
2023/08/30 11:15:03;;;;;;;0.10;0.10;;;21.10;99.90;;;;;;8311672;28;20117;-80
2023/08/30 11:19:04;;;;;;;0.10;0.10;;;20.50;99.90;;;;;;8326342;28;20030;-83
2023/08/30 11:23:05;;;;;;;0.10;0.10;;;19.30;99.90;;;;;;8308415;28;20420;-82
2023/08/30 11:27:06;;;;;;;0.10;0.10;;;18.50;99.90;;;;;;8305142;28;20036;-82
2023/08/30 11:31:07;;;;;;;0.03;0.03;;;18.20;99.90;;;;;;8309914;28;20072;-83
2023/08/30 11:35:08;;;;;;;0.08;0.08;;;18.40;99.90;;;;;;8328038;28;20087;-82
2023/08/30 11:39:10;;;;;;;0.10;0.10;;;18.70;99.90;;;;;;8318721;28;20028;-83
2023/08/30 11:43:11;;;;;;;0.00;0.00;;;19.00;99.90;;;;;;8313714;28;20028;-82
2023/08/30 11:47:22;;;;;;;0.10;0.10;;;19.10;99.90;;;;;;8333233;28;20514;-83
2023/08/30 11:51:23;;;;;;;0.00;0.00;;;19.40;99.90;;;;;;8315285;28;20564;-83
2023/08/30 11:55:24;;;;;;;0.10;0.10;;;19.60;99.90;;;;;;8320231;28;20040;-82
2023/08/30 11:59:25;;;;;;;0.10;0.10;;;19.80;99.90;;;;;;8317762;28;20049;-81
2023/08/30 12:03:29;;;;;;;0.00;0.00;;;20.30;99.90;;;;;;8312575;28;20060;-80
2023/08/30 12:07:30;;;;;;;0.03;0.03;;;21.80;99.90;;;;;;8309949;28;20498;-80
2023/08/30 12:11:32;;;;;;;0.00;0.00;;;23.10;99.90;;;;;;8312351;28;20045;-80
2023/08/30 12:15:34;;;;;;;0.10;0.10;;;22.70;99.90;;;;;;8310299;28;20278;-80
2023/08/30 12:19:34;;;;;;;0.00;0.00;;;22.20;99.90;;;;;;8312753;28;20044;-80
2023/08/30 12:23:35;;;;;;;0.00;0.00;;;23.00;99.90;;;;;;8331699;28;20009;-80
2023/08/30 12:27:36;;;;;;;0.10;0.10;;;23.70;99.90;;;;;;8331207;28;20032;-80
2023/08/30 12:31:37;;;;;;;0.10;0.10;;;24.20;99.90;;;;;;8329938;28;20021;-80
2023/08/30 12:35:38;;;;;;;2.03;1.67;;;25.20;99.90;;;;;;8330346;28;20021;-81
2023/08/30 12:39:38;;;;;;;1.73;1.58;;;25.50;99.90;;;;;;8329900;28;20021;-80
2023/08/30 12:43:39;;;;;;;2.05;1.63;;;26.30;99.90;;;;;;8325005;28;20028;-80
2023/08/30 12:47:39;;;;;;;2.05;1.70;;;26.20;99.90;;;;;;8312981;28;20028;-80
2023/08/30 12:51:40;;;;;;;1.90;1.40;;;26.60;99.90;;;;;;8328827;28;20025;-81
2023/08/30 12:55:40;;;;;;;1.60;1.50;;;27.00;99.90;;;;;;8318469;28;20036;-81
2023/08/30 12:59:41;;;;;;;2.58;1.52;;;27.20;99.90;;;;;;8323770;28;20018;-80
2023/08/30 13:03:41;;;;;;;1.63;1.50;;;26.40;99.90;;;;;;8333036;28;20021;-81
2023/08/30 13:07:42;;;;;;;2.47;1.40;;;25.70;99.90;;;;;;8331488;28;20033;-80
2023/08/30 13:11:43;;;;;;;1.52;1.42;;;24.90;99.90;;;;;;8320762;28;20053;-80
2023/08/30 13:15:43;;;;;;;1.80;1.40;;;25.20;99.90;;;;;;8325734;28;20059;-80
2023/08/30 13:19:44;;;;;;;4.43;1.40;;;24.40;99.90;;;;;;8308167;28;20025;-81
2023/08/30 13:23:44;;;;;;;1.40;1.30;;;25.50;99.90;;;;;;8310807;28;20569;-80
2023/08/30 13:27:46;;;;;;;2.90;1.02;;;26.50;99.90;;;;;;8330003;28;20028;-78
2023/08/30 13:31:46;;;;;;;1.77;1.20;;;26.50;99.70;;;;;;8304287;28;20038;-80
2023/08/30 13:35:53;;;;;;;2.10;1.45;;;26.50;99.90;;;;;;8328531;28;20075;-79
2023/08/30 13:39:54;;;;;;;2.20;1.48;;;26.70;98.70;;;;;;8319603;28;20098;-80
2023/08/30 13:43:54;;;;;;;2.05;1.30;;;27.00;99.60;;;;;;8323406;28;20514;-80
2023/08/30 13:47:55;;;;;;;1.73;1.30;;;26.80;98.50;;;;;;8309737;28;20028;-80
2023/08/30 13:51:56;;;;;;;1.38;1.10;;;27.40;98.70;;;;;;8328606;28;20099;-80
2023/08/30 13:55:56;;;;;;;1.95;0.93;;;27.70;96.10;;;;;;8309791;28;20029;-80
2023/08/30 13:59:57;;;;;;;1.38;1.17;;;26.50;96.10;;;;;;8321320;28;20112;-79
2023/08/30 14:03:58;;;;;;;1.50;1.05;;;26.50;97.20;;;;;;8327632;28;20029;-80
2023/08/30 14:07:58;;;;;;;4.85;1.48;;;26.00;98.20;;;;;;8329267;28;20047;-79
2023/08/30 14:11:59;;;;;;;1.25;1.15;;;26.60;97.70;;;;;;8329878;28;20048;-79
2023/08/30 14:16:00;;;;;;;3.92;1.40;;;27.00;97.30;;;;;;8311156;28;20026;-80
2023/08/30 14:20:01;;;;;;;1.50;1.20;;;27.80;93.60;;;;;;8326568;28;20060;-79
2023/08/30 14:24:01;;;;;;;2.22;1.10;;;27.90;94.10;;;;;;8322933;28;20489;-80
2023/08/30 14:28:03;;;;;;;2.05;1.60;;;26.10;95.10;;;;;;8304981;28;20040;-79
2023/08/30 14:32:04;;;;;;;1.60;1.20;;;24.70;99.90;;;;;;8308870;28;20033;-80
2023/08/30 14:36:11;;;;;;;1.33;1.10;;;26.40;98.70;;;;;;8308907;28;20053;-79
2023/08/30 14:40:11;;;;;;;1.50;1.23;;;27.90;95.20;;;;;;8331031;28;20097;-79
2023/08/30 14:44:12;;;;;;;1.10;1.00;;;27.90;94.50;;;;;;8323836;28;20486;-79
2023/08/30 14:48:13;;;;;;;1.80;1.27;;;27.10;95.60;;;;;;8319986;28;20061;-79
2023/08/30 14:52:14;;;;;;;1.45;1.10;;;27.30;95.90;;;;;;8316675;28;20551;-79
2023/08/30 14:56:14;;;;;;;3.05;1.10;;;28.30;94.00;;;;;;8326456;28;20056;-79
2023/08/30 15:00:15;;;;;;;1.15;1.05;;;28.90;91.10;;;;;;8320940;28;20030;-79
2023/08/30 15:04:15;;;;;;;0.88;0.85;;;28.40;86.90;;;;;;8308742;28;20072;-79
2023/08/30 15:08:16;;;;;;;1.38;1.00;;;27.70;91.70;;;;;;8315305;28;20025;-79
2023/08/30 15:12:17;;;;;;;2.15;1.10;;;26.10;92.20;;;;;;8320397;28;20017;-78
2023/08/30 15:16:17;;;;;;;2.10;1.40;;;24.50;94.80;;;;;;8323974;28;20073;-79
2023/08/30 15:20:18;;;;;;;1.50;1.40;;;23.60;97.50;;;;;;8331204;28;20756;-78
2023/08/30 15:24:18;;;;;;;1.25;1.00;;;23.70;99.90;;;;;;8329986;28;20051;-79
2023/08/30 15:28:19;;;;;;;1.23;1.13;;;26.40;95.40;;;;;;8337594;28;20029;-79
2023/08/30 15:32:19;;;;;;;2.05;1.00;;;25.30;94.10;;;;;;8322312;28;20385;-79
2023/08/30 15:36:20;;;;;;;1.48;1.20;;;23.40;97.50;;;;;;8318076;28;20038;-79
2023/08/30 15:40:21;;;;;;;1.33;1.10;;;22.10;99.90;;;;;;8322679;28;20029;-79
2023/08/30 15:44:21;;;;;;;1.73;1.08;;;21.40;99.90;;;;;;8331040;28;20024;-79
2023/08/30 15:48:22;;;;;;;1.20;1.10;;;20.70;99.90;;;;;;8313074;28;20383;-78
2023/08/30 15:52:22;;;;;;;1.27;1.17;;;20.40;99.90;;;;;;8328906;28;20113;-79
2023/08/30 15:56:23;;;;;;;1.20;1.00;;;20.10;99.90;;;;;;8384901;22;20071;-77
2023/08/30 16:00:24;;;;;;;1.63;1.20;;;19.90;99.90;;;;;;8379728;28;20032;-77
2023/08/30 16:04:24;;;;;;;1.58;1.30;;;19.60;99.90;;;;;;8376674;28;20039;-77
2023/08/30 16:08:27;;;;;;;3.15;1.48;;;19.30;99.90;;;;;;8397817;28;20484;-77
2023/08/30 16:12:28;;;;;;;5.43;1.35;;;19.10;99.90;;;;;;8395499;28;20017;-77
2023/08/30 16:16:29;;;;;;;1.40;1.30;;;19.00;99.90;;;;;;8377197;28;20594;-77
2023/08/30 16:20:31;;;;;;;1.70;1.40;;;18.70;99.90;;;;;;8390256;28;20481;-76
2023/08/30 16:24:32;;;;;;;3.13;1.92;;;18.80;99.90;;;;;;8394889;28;20028;-77
2023/08/30 16:28:32;;;;;;;4.85;1.88;;;18.60;99.90;;;;;;8377516;28;20637;-77
2023/08/30 16:32:34;;;;;;;3.25;1.80;;;18.50;99.90;;;;;;8395293;28;20025;-76
2023/08/30 16:36:34;;;;;;;2.40;2.17;;;18.60;99.90;;;;;;8376704;28;20021;-76
2023/08/30 16:40:35;;;;;;;5.72;1.92;;;18.30;99.90;;;;;;8380516;28;20052;-77
2023/08/30 16:44:36;;;;;;;3.25;2.20;;;18.10;99.90;;;;;;8376673;28;20017;-76
2023/08/30 16:48:38;;;;;;;2.35;2.15;;;18.00;99.90;;;;;;8384965;28;20050;-77
2023/08/30 16:52:38;;;;;;;2.85;2.50;;;17.80;99.90;;;;;;8373749;28;20029;-76
2023/08/30 16:56:39;;;;;;;3.08;2.50;;;17.50;99.90;;;;;;8394746;28;20099;-77
2023/08/30 17:00:40;;;;;;;5.63;2.80;;;17.30;99.90;;;;;;8380086;28;20028;-77
2023/08/30 17:04:40;;;;;;;3.30;2.78;;;17.30;99.90;;;;;;8394292;28;20055;-77
2023/08/30 17:08:42;;;;;;;4.43;3.20;;;17.10;99.90;;;;;;8376695;28;20381;-77
2023/08/30 17:12:42;;;;;;;5.72;3.03;;;17.00;99.90;;;;;;8392799;28;20012;-77
2023/08/30 17:16:44;;;;;;;3.17;2.88;;;16.90;99.90;;;;;;8372347;28;20024;-76
2023/08/30 17:20:44;;;;;;;3.33;2.92;;;16.80;99.90;;;;;;8366557;28;20012;-77
2023/08/30 17:24:45;;;;;;;4.68;2.25;;;16.70;99.90;;;;;;8363802;28;20666;-76
2023/08/30 17:28:45;;;;;;;3.00;2.45;;;16.60;99.90;;;;;;8372893;28;20024;-76
2023/08/30 17:32:46;;;;;;;2.78;2.58;;;16.60;99.90;;;;;;8364250;28;20561;-76
2023/08/30 17:36:47;;;;;;;5.80;3.17;;;16.50;99.90;;;;;;8350927;28;20021;-76
2023/08/30 17:40:48;;;;;;;3.53;2.88;;;16.40;99.90;;;;;;8357330;28;20317;-76
2023/08/30 17:44:49;;;;;;;3.22;2.40;;;16.30;99.90;;;;;;8358384;28;20017;-77
2023/08/30 17:48:49;;;;;;;3.13;2.38;;;16.20;99.90;;;;;;8336025;28;21280;-77
2023/08/30 17:52:50;;;;;;;3.42;2.63;;;16.20;99.90;;;;;;8361697;28;20043;-77
2023/08/30 17:56:51;;;;;;;5.05;2.85;;;16.10;99.90;;;;;;8356690;28;20392;-77
2023/08/30 18:00:54;;;;;;;4.07;2.95;;;16.00;99.90;;;;;;8358842;28;20432;-76
2023/08/30 18:04:54;;;;;;;4.57;3.00;;;15.80;99.90;;;;;;8379239;28;20024;-76
2023/08/30 18:08:55;;;;;;;3.33;3.00;;;15.70;99.90;;;;;;8375707;28;20082;-76
2023/08/30 18:12:56;;;;;;;3.30;3.00;;;15.60;99.90;;;;;;8360818;28;20020;-77
2023/08/30 18:16:56;;;;;;;4.10;3.17;;;15.60;99.90;;;;;;8376208;28;20773;-76
2023/08/30 18:20:58;;;;;;;4.25;3.20;;;15.60;99.90;;;;;;8354738;28;20698;-77
2023/08/30 18:24:58;;;;;;;6.53;3.25;;;15.70;99.90;;;;;;8380456;28;20052;-77
2023/08/30 18:28:59;;;;;;;3.85;3.40;;;15.70;99.90;;;;;;8369214;28;20021;-76
2023/08/30 18:33:00;;;;;;;4.63;4.13;;;15.70;99.90;;;;;;8384007;28;20064;-76
2023/08/30 18:37:00;;;;;;;5.07;3.72;;;15.60;99.90;;;;;;8378846;28;20129;-76
2023/08/30 18:41:03;;;;;;;4.18;3.60;;;15.50;99.90;;;;;;8365598;28;20025;-76
2023/08/30 18:45:05;;;;;;;4.78;3.72;;;15.40;99.90;;;;;;8379789;28;20025;-77
2023/08/30 18:49:05;;;;;;;4.40;3.30;;;15.40;99.90;;;;;;8358881;28;20028;-76
2023/08/30 18:53:06;;;;;;;3.65;3.30;;;15.30;99.90;;;;;;8355705;28;20024;-77
2023/08/30 18:57:06;;;;;;;4.82;3.22;;;15.30;99.90;;;;;;8357060;28;20108;-77
2023/08/30 19:01:07;;;;;;;4.88;3.38;;;15.50;99.90;;;;;;8357787;28;20021;-76
2023/08/30 19:05:08;;;;;;;3.47;2.55;;;15.30;99.90;;;;;;8361610;28;20017;-76
2023/08/30 19:09:09;;;;;;;2.70;2.50;;;15.30;99.90;;;;;;8348722;28;20573;-76
2023/08/30 19:13:11;;;;;;;3.92;2.75;;;15.30;99.90;;;;;;8354857;28;20025;-76
2023/08/30 19:17:11;;;;;;;4.30;3.53;;;15.20;99.90;;;;;;8354708;28;20103;-75
2023/08/30 19:21:13;;;;;;;3.65;3.35;;;15.20;99.90;;;;;;8358706;28;20029;-76
2023/08/30 19:25:16;;;;;;;4.90;3.45;;;15.00;99.90;;;;;;8368193;28;20398;-76
2023/08/30 19:29:17;;;;;;;4.25;3.67;;;14.70;99.90;;;;;;8355318;28;20024;-76
2023/08/30 19:33:18;;;;;;;5.05;4.55;;;14.70;99.90;;;;;;8366735;28;20036;-76
2023/08/30 19:37:24;;;;;;;4.80;4.30;;;14.60;99.90;;;;;;8357689;28;20116;-76
2023/08/30 19:41:25;;;;;;;5.55;4.53;;;14.50;99.90;;;;;;8351929;28;20475;-76
2023/08/30 19:45:26;;;;;;;5.22;4.72;;;14.40;99.90;;;;;;8353539;28;20092;-76
2023/08/30 19:49:27;;;;;;;6.95;4.60;;;14.20;99.90;;;;;;8366382;28;20028;-76
2023/08/30 19:53:28;;;;;;;6.50;5.40;;;14.20;99.90;;;;;;8365960;28;20052;-76
2023/08/30 19:57:29;;;;;;;5.05;4.55;;;14.00;99.90;;;;;;8382179;28;20408;-76
2023/08/30 20:01:29;;;;;;;5.13;4.63;;;13.90;99.90;;;;;;8361485;28;20021;-76
2023/08/30 20:05:30;;;;;;;6.18;5.15;;;13.80;99.90;;;;;;8355301;28;20013;-76
2023/08/30 20:09:31;;;;;;;6.20;5.10;;;13.90;99.90;;;;;;8365319;28;20674;-77
2023/08/30 20:13:32;;;;;;;5.20;4.70;;;13.80;99.90;;;;;;8369983;28;20028;-76
2023/08/30 20:17:33;;;;;;;6.00;5.40;;;13.60;99.90;;;;;;8355493;28;20123;-76
2023/08/30 20:21:33;;;;;;;7.85;5.10;;;13.40;99.90;;;;;;8363340;28;20048;-76
2023/08/30 20:25:37;;;;;;;6.57;5.22;;;13.20;99.90;;;;;;8361867;28;20036;-76
2023/08/30 20:29:37;;;;;;;7.88;5.32;;;13.10;99.90;;;;;;8363358;28;20035;-76
2023/08/30 20:33:38;;;;;;;6.47;5.88;;;12.90;99.90;;;;;;8353104;28;20017;-75
2023/08/30 20:37:38;;;;;;;7.40;5.95;;;12.90;99.90;;;;;;8377231;28;20025;-76
2023/08/30 20:41:39;;;;;;;6.28;5.68;;;12.80;99.90;;;;;;8362807;28;20024;-75
2023/08/30 20:45:39;;;;;;;6.60;5.85;;;12.90;99.90;;;;;;8364792;28;20400;-76
2023/08/30 20:49:43;;;;;;;6.90;6.20;;;12.90;99.90;;;;;;8364201;28;20024;-76
2023/08/30 20:53:45;;;;;;;6.60;5.93;;;12.70;99.90;;;;;;8347697;28;20129;-76
2023/08/30 20:57:46;;;;;;;7.05;6.35;;;12.60;99.90;;;;;;8365558;28;20115;-76
2023/08/30 21:01:46;;;;;;;8.43;6.93;;;12.50;99.90;;;;;;8379796;28;20035;-76